createdAt,value
2019-04-04T00:01:35.762Z,120.40
2019-04-04T00:04:04.350Z,120.90
2019-04-04T00:06:32.633Z,119.93
2019-04-04T00:09:01.991Z,119.87
2019-04-04T00:11:31.022Z,116.17
2019-04-04T00:13:59.398Z,105.83
2019-04-04T00:16:27.984Z,116.90
2019-04-04T00:18:58.470Z,120.67
2019-04-04T00:21:27.934Z,134.63
2019-04-04T00:23:56.260Z,120.30
2019-04-04T00:26:24.547Z,121.23
2019-04-04T00:28:53.160Z,124.73
2019-04-04T00:31:21.764Z,121.17
2019-04-04T00:33:50.427Z,124.10
2019-04-04T00:36:18.804Z,119.20
2019-04-04T00:38:47.385Z,119.73
2019-04-04T00:41:15.975Z,110.83
2019-04-04T00:43:44.264Z,116.83
2019-04-04T00:46:12.831Z,111.17
2019-04-04T00:48:41.446Z,114.97
2019-04-04T00:51:10.101Z,116.70
2019-04-04T00:53:38.378Z,108.27
2019-04-04T00:56:06.682Z,105.20
2019-04-04T00:58:34.971Z,113.43
2019-04-04T01:01:03.827Z,107.67
2019-04-04T01:03:32.418Z,105.33
2019-04-04T01:06:02.673Z,111.37
2019-04-04T01:08:30.727Z,104.43
2019-04-04T01:10:59.034Z,100.07
2019-04-04T01:13:27.778Z,104.27
2019-04-04T01:15:56.450Z,97.80
2019-04-04T01:18:24.766Z,94.93
2019-04-04T01:20:53.042Z,94.20
2019-04-04T01:23:21.332Z,89.67
2019-04-04T01:25:49.711Z,92.00
2019-04-04T01:28:18.347Z,96.50
2019-04-04T01:30:46.626Z,97.30
2019-04-04T01:33:15.208Z,95.33
2019-04-04T01:35:43.515Z,88.53
2019-04-04T01:38:12.071Z,91.90
2019-04-04T01:40:40.356Z,91.90
2019-04-04T01:43:09.346Z,85.80
2019-04-04T01:45:38.640Z,88.50
2019-04-04T01:48:07.039Z,83.73
2019-04-04T01:50:35.566Z,83.33
2019-04-04T01:53:03.902Z,85.40
2019-04-04T01:55:32.943Z,82.00
2019-04-04T01:58:02.572Z,79.73
2019-04-04T02:00:31.182Z,82.10
2019-04-04T02:02:59.574Z,82.10
2019-04-04T02:05:27.874Z,78.77
2019-04-04T02:07:56.228Z,82.27
2019-04-04T02:10:24.783Z,77.30
2019-04-04T02:12:53.368Z,77.03
2019-04-04T02:15:21.666Z,75.40
2019-04-04T02:17:52.660Z,79.33
2019-04-04T02:20:20.546Z,77.23
2019-04-04T02:22:48.850Z,75.27
2019-04-04T02:25:19.996Z,75.27
2019-04-04T02:27:48.331Z,72.70
2019-04-04T02:30:16.655Z,74.63
2019-04-04T02:32:45.419Z,70.90
2019-04-04T02:35:13.719Z,72.23
2019-04-04T02:37:42.008Z,68.30
2019-04-04T02:40:10.594Z,68.50
2019-04-04T02:42:39.231Z,68.63
2019-04-04T02:45:07.819Z,68.70
2019-04-04T02:47:36.404Z,66.60
2019-04-04T02:50:07.018Z,65.87
2019-04-04T02:52:35.728Z,65.60
2019-04-04T02:55:05.048Z,61.43
2019-04-04T02:57:33.712Z,63.10
2019-04-04T03:00:01.993Z,63.00
2019-04-04T03:02:30.306Z,62.67
2019-04-04T03:04:58.597Z,58.83
2019-04-04T03:07:29.828Z,57.40
2019-04-04T03:09:57.284Z,58.43
2019-04-04T03:12:26.796Z,60.77
2019-04-04T03:14:55.311Z,59.80
2019-04-04T03:17:23.649Z,59.70
2019-04-04T03:19:51.940Z,62.10
2019-04-04T03:22:20.235Z,56.30
2019-04-04T03:24:48.586Z,57.23
2019-04-04T03:27:16.893Z,54.70
2019-04-04T03:29:46.814Z,60.33
2019-04-04T03:32:16.775Z,57.60
2019-04-04T03:34:50.166Z,53.93
2019-04-04T03:37:15.476Z,57.17
2019-04-04T03:39:45.453Z,55.27
2019-04-04T03:42:13.779Z,54.60
2019-04-04T03:44:42.340Z,50.70
2019-04-04T03:47:11.392Z,47.53
2019-04-04T03:49:40.115Z,51.47
2019-04-04T03:52:11.180Z,51.50
2019-04-04T03:54:38.655Z,50.07
2019-04-04T03:57:11.104Z,47.77
2019-04-04T03:59:36.973Z,48.47
2019-04-04T04:02:05.604Z,46.53
2019-04-04T04:04:33.981Z,43.67
2019-04-04T04:07:02.290Z,47.43
2019-04-04T04:09:30.831Z,47.33
2019-04-04T04:11:59.122Z,43.77
2019-04-04T04:14:27.691Z,46.03
2019-04-04T04:16:55.969Z,46.20
2019-04-04T04:19:27.453Z,44.67
2019-04-04T04:21:54.313Z,43.37
2019-04-04T04:24:22.595Z,50.17
2019-04-04T04:26:51.219Z,43.23
2019-04-04T04:29:19.806Z,43.83
2019-04-04T04:31:49.288Z,43.27
2019-04-04T04:34:18.204Z,39.93
2019-04-04T04:36:48.010Z,41.67
2019-04-04T04:39:16.512Z,41.30
2019-04-04T04:41:44.825Z,43.77
2019-04-04T04:44:13.262Z,41.77
2019-04-04T04:46:41.576Z,40.77
2019-04-04T04:49:10.218Z,41.37
2019-04-04T04:51:38.795Z,40.37
2019-04-04T04:54:07.324Z,39.80
2019-04-04T04:56:35.614Z,41.13
2019-04-04T04:59:04.247Z,35.57
2019-04-04T05:01:32.598Z,42.17
2019-04-04T05:04:02.526Z,43.53
2019-04-04T05:06:35.367Z,45.77
2019-04-04T05:09:01.963Z,54.33
2019-04-04T05:11:30.546Z,50.20
2019-04-04T05:13:58.902Z,47.43
2019-04-04T05:16:27.201Z,47.70
2019-04-04T05:18:55.785Z,44.67
2019-04-04T05:21:25.547Z,44.33
2019-04-04T05:23:54.163Z,47.77
2019-04-04T05:26:22.867Z,47.50
2019-04-04T05:28:51.178Z,46.33
2019-04-04T05:31:19.519Z,47.60
2019-04-04T05:33:48.119Z,60.17
2019-04-04T05:36:16.417Z,61.37
2019-04-04T05:38:47.154Z,61.50
2019-04-04T05:41:16.397Z,60.93
2019-04-04T05:43:45.058Z,59.80
2019-04-04T05:46:13.420Z,64.70
2019-04-04T05:48:41.693Z,58.40
2019-04-04T05:51:09.988Z,61.77
2019-04-04T05:53:38.298Z,54.70
2019-04-04T05:56:06.909Z,52.17
2019-04-04T05:58:35.585Z,54.03
2019-04-04T06:01:05.334Z,51.10
2019-04-04T06:03:33.980Z,53.57
2019-04-04T06:06:02.586Z,55.10
2019-04-04T06:08:30.931Z,59.47
2019-04-04T06:10:59.564Z,54.30
2019-04-04T06:13:27.945Z,58.83
2019-04-04T06:15:56.225Z,56.50
2019-04-04T06:18:25.772Z,57.17
2019-04-04T06:20:54.055Z,56.70
2019-04-04T06:23:23.081Z,54.67
2019-04-04T06:25:52.379Z,57.70
2019-04-04T06:28:20.951Z,71.77
2019-04-04T06:30:49.256Z,70.53
2019-04-04T06:33:17.620Z,71.17
2019-04-04T06:35:47.914Z,61.17
2019-04-04T06:38:16.193Z,59.87
2019-04-04T06:40:44.795Z,61.17
2019-04-04T06:43:13.367Z,56.00
2019-04-04T06:45:41.653Z,56.03
2019-04-04T06:48:09.946Z,56.60
2019-04-04T06:50:40.082Z,54.10
2019-04-04T06:53:08.281Z,54.57
2019-04-04T06:55:39.926Z,54.17
2019-04-04T06:58:09.437Z,50.90
2019-04-04T07:00:36.943Z,49.60
2019-04-04T07:03:05.234Z,46.77
2019-04-04T07:05:33.913Z,49.23
2019-04-04T07:08:02.203Z,44.07
2019-04-04T07:10:30.575Z,46.27
2019-04-04T07:13:14.587Z,125.60
2019-04-04T07:15:29.259Z,81.40
2019-04-04T07:17:57.835Z,82.33
2019-04-04T07:20:28.383Z,78.87
2019-04-04T07:22:56.441Z,81.47
2019-04-04T07:25:25.017Z,80.37
2019-04-04T07:27:53.302Z,66.40
2019-04-04T07:30:21.606Z,62.87
2019-04-04T07:32:49.905Z,70.33
2019-04-04T07:35:20.930Z,85.37
2019-04-04T07:37:48.568Z,81.53
2019-04-04T07:40:16.864Z,87.83
2019-04-04T07:42:47.989Z,76.50
2019-04-04T07:45:15.181Z,68.67
2019-04-04T07:47:46.646Z,64.00
2019-04-04T07:50:13.576Z,56.73
2019-04-04T07:52:41.874Z,55.83
2019-04-04T07:55:10.998Z,48.57
2019-04-04T07:57:39.432Z,53.77
2019-04-04T08:00:08.480Z,46.00
2019-04-04T08:02:36.811Z,38.60
2019-04-04T08:05:07.879Z,42.63
2019-04-04T08:07:36.474Z,44.70
2019-04-04T08:10:06.259Z,41.43
2019-04-04T08:12:34.870Z,58.50
2019-04-04T08:15:03.786Z,45.37
2019-04-04T08:17:32.081Z,42.97
2019-04-04T08:20:00.452Z,50.80
2019-04-04T08:22:28.823Z,45.60
2019-04-04T08:24:57.101Z,43.37
2019-04-04T08:27:25.408Z,41.00
2019-04-04T08:29:53.690Z,42.90
2019-04-04T08:32:21.987Z,55.70
2019-04-04T08:34:50.378Z,45.73
2019-04-04T08:37:18.965Z,45.13
2019-04-04T08:39:47.563Z,50.37
2019-04-04T08:42:15.843Z,63.07
2019-04-04T08:44:44.146Z,65.70
2019-04-04T08:47:12.785Z,63.90
2019-04-04T08:49:41.094Z,61.77
2019-04-04T08:52:16.578Z,53.23
2019-04-04T08:54:39.932Z,51.50
2019-04-04T08:57:08.558Z,49.57
2019-04-04T08:59:37.098Z,48.40
2019-04-04T09:02:05.434Z,50.37
2019-04-04T09:04:34.002Z,48.13
2019-04-04T09:07:02.298Z,50.87
2019-04-04T09:09:31.215Z,78.03
2019-04-04T09:12:01.191Z,86.53
2019-04-04T09:14:29.491Z,99.63
2019-04-04T09:16:57.777Z,91.73
2019-04-04T09:19:26.427Z,92.43
2019-04-04T09:21:55.009Z,87.17
2019-04-04T09:24:23.294Z,77.37
2019-04-04T09:26:51.870Z,73.33
2019-04-04T09:29:20.158Z,69.80
2019-04-04T09:31:48.480Z,70.50
2019-04-04T09:34:17.111Z,66.90
2019-04-04T09:36:45.390Z,72.13
2019-04-04T09:39:13.693Z,84.53
2019-04-04T09:41:42.008Z,85.07
2019-04-04T09:44:10.307Z,70.63
2019-04-04T09:46:38.843Z,77.00
2019-04-04T09:49:07.490Z,65.40
2019-04-04T09:51:36.067Z,66.87
2019-04-04T09:54:04.350Z,66.60
2019-04-04T09:56:32.934Z,62.00
2019-04-04T09:59:01.231Z,64.23
2019-04-04T10:01:29.907Z,65.37
2019-04-04T10:03:58.579Z,63.13
2019-04-04T10:06:27.167Z,60.20
2019-04-04T10:08:55.450Z,54.97
2019-04-04T10:11:24.036Z,50.57
2019-04-04T10:13:52.606Z,51.10
2019-04-04T10:16:20.908Z,49.50
2019-04-04T10:18:49.192Z,46.20
2019-04-04T10:21:17.491Z,43.03
2019-04-04T10:23:45.778Z,39.97
2019-04-04T10:26:14.100Z,42.57
2019-04-04T10:28:42.686Z,50.17
2019-04-04T10:31:10.998Z,69.00
2019-04-04T10:33:42.091Z,77.80
2019-04-04T10:36:09.310Z,70.80
2019-04-04T10:38:37.614Z,64.63
2019-04-04T10:41:05.920Z,60.50
2019-04-04T10:43:34.570Z,48.83
2019-04-04T10:48:45.286Z,47.07
2019-04-04T10:51:13.838Z,45.90
2019-04-04T10:53:42.463Z,48.20
2019-04-04T10:56:11.034Z,42.80
2019-04-04T10:58:39.314Z,46.40
2019-04-04T11:01:07.890Z,51.83
2019-04-04T11:03:36.206Z,55.60
2019-04-04T11:06:04.841Z,52.23
2019-04-04T11:08:33.611Z,50.07
2019-04-04T11:11:02.183Z,54.07
2019-04-04T11:13:33.662Z,55.73
2019-04-04T11:16:00.838Z,54.10
2019-04-04T11:18:29.118Z,51.57
2019-04-04T11:20:57.441Z,55.20
2019-04-04T11:23:25.733Z,59.03
2019-04-04T11:25:54.024Z,49.73
2019-04-04T11:28:22.335Z,50.53
2019-04-04T11:30:52.037Z,48.57
2019-04-04T11:33:20.387Z,49.93
2019-04-04T11:35:48.929Z,51.83
2019-04-04T11:38:17.566Z,54.87
2019-04-04T11:40:45.890Z,57.60
2019-04-04T11:43:14.170Z,59.13
2019-04-04T11:45:42.458Z,58.27
2019-04-04T11:48:10.817Z,56.93
2019-04-04T11:50:39.923Z,53.50
2019-04-04T11:53:08.859Z,54.33
2019-04-04T11:55:37.189Z,59.50
2019-04-04T11:58:05.488Z,52.60
2019-04-04T12:00:38.812Z,54.10
2019-04-04T12:03:07.398Z,55.17
2019-04-04T12:05:38.739Z,49.90
2019-04-04T12:08:07.145Z,48.17
2019-04-04T12:10:35.542Z,50.37
2019-04-04T12:13:03.869Z,46.60
2019-04-04T12:15:32.218Z,47.17
2019-04-04T12:18:00.508Z,43.60
2019-04-04T12:20:29.218Z,44.83
2019-04-04T12:22:57.503Z,46.37
2019-04-04T12:25:26.089Z,44.73
2019-04-04T12:27:54.668Z,45.03
2019-04-04T12:30:22.975Z,45.37
2019-04-04T12:32:51.681Z,41.50
2019-04-04T12:35:20.085Z,39.83
2019-04-04T12:37:48.395Z,42.33
2019-04-04T12:40:20.860Z,38.33
2019-04-04T12:42:47.105Z,40.87
2019-04-04T12:45:15.883Z,42.07
2019-04-04T12:47:44.450Z,35.40
2019-04-04T12:50:13.903Z,38.47
2019-04-04T12:52:42.542Z,43.03
2019-04-04T12:55:11.144Z,48.00
2019-04-04T12:57:39.706Z,39.30
2019-04-04T13:00:08.874Z,37.67
2019-04-04T13:02:37.162Z,32.33
2019-04-04T13:05:07.949Z,37.23
2019-04-04T13:07:36.322Z,33.27
2019-04-04T13:10:11.738Z,32.67
2019-04-04T13:12:37.062Z,32.23
2019-04-04T13:15:07.499Z,38.73
2019-04-04T13:17:36.158Z,46.87
2019-04-04T13:20:06.334Z,56.30
2019-04-04T13:22:35.006Z,55.07
2019-04-04T13:25:04.662Z,51.37
2019-04-04T13:27:33.477Z,53.07
2019-04-04T13:30:01.761Z,49.40
2019-04-04T13:32:30.180Z,42.33
2019-04-04T13:34:59.824Z,51.57
2019-04-04T13:37:28.756Z,40.40
2019-04-04T13:39:57.519Z,34.47
2019-04-04T13:42:25.887Z,37.20
2019-04-04T13:44:54.163Z,28.77
2019-04-04T13:47:22.486Z,22.17
2019-04-04T13:49:51.247Z,19.23
2019-04-04T13:52:19.518Z,15.70
2019-04-04T13:54:47.821Z,15.83
2019-04-04T13:57:16.143Z,16.85
2019-04-04T13:59:44.751Z,14.10
2019-04-04T14:02:13.340Z,12.03
2019-04-04T14:04:41.920Z,12.40
2019-04-04T14:07:10.249Z,9.93
2019-04-04T14:09:38.878Z,8.90
2019-04-04T14:12:07.157Z,8.03
2019-04-04T14:14:35.484Z,6.43
2019-04-04T14:17:03.784Z,5.30
2019-04-04T14:19:32.398Z,7.77
2019-04-04T14:22:00.682Z,7.07
2019-04-04T14:24:29.260Z,12.20
2019-04-04T14:26:57.847Z,6.97
2019-04-04T14:29:27.787Z,5.87
2019-04-04T14:31:56.644Z,6.10
2019-04-04T14:34:25.225Z,6.37
2019-04-04T14:36:53.805Z,6.57
2019-04-04T14:39:34.819Z,5.50
2019-04-04T14:42:03.187Z,8.33
2019-04-04T14:44:31.527Z,7.20
2019-04-04T14:47:00.127Z,6.97
2019-04-04T14:49:28.719Z,7.05
2019-04-04T14:51:56.997Z,7.60
2019-04-04T14:54:29.045Z,6.90
2019-04-04T14:56:55.294Z,6.90
2019-04-04T14:59:23.583Z,7.07
2019-04-04T15:01:51.876Z,14.70
2019-04-04T15:04:21.026Z,9.00
2019-04-04T15:06:49.731Z,8.17
2019-04-04T15:09:18.307Z,10.60
2019-04-04T15:11:46.824Z,11.57
2019-04-04T15:14:15.188Z,12.80
2019-04-04T15:16:43.606Z,13.93
2019-04-04T15:19:11.985Z,15.63
2019-04-04T15:21:40.304Z,13.43
2019-04-04T15:24:09.017Z,13.03
2019-04-04T15:26:37.895Z,10.83
2019-04-04T15:29:06.473Z,14.90
2019-04-04T15:31:35.592Z,11.47
2019-04-04T15:34:04.378Z,12.83
2019-04-04T15:36:33.061Z,14.97
2019-04-04T15:39:01.831Z,15.50
2019-04-04T15:41:36.743Z,19.40
2019-04-04T15:44:00.562Z,19.37
2019-04-04T15:46:29.214Z,19.43
2019-04-04T15:48:57.524Z,15.57
2019-04-04T15:51:26.175Z,16.57
2019-04-04T15:53:54.759Z,15.63
2019-04-04T15:56:23.355Z,14.43
2019-04-04T15:58:51.630Z,20.63
2019-04-04T16:01:20.301Z,22.63
2019-04-04T16:03:48.911Z,21.07
2019-04-04T16:06:17.320Z,22.57
2019-04-04T16:08:45.758Z,25.33
2019-04-04T16:11:14.343Z,23.60
2019-04-04T16:13:43.128Z,23.97
2019-04-04T16:16:11.423Z,25.03
2019-04-04T16:18:39.747Z,22.67
2019-04-04T16:21:08.476Z,24.53
2019-04-04T16:23:37.789Z,24.43
2019-04-04T16:26:06.466Z,22.20
2019-04-04T16:28:35.134Z,22.33
2019-04-04T16:31:03.879Z,22.83
2019-04-04T16:33:33.000Z,19.67
2019-04-04T16:36:01.771Z,21.10
2019-04-04T16:38:30.514Z,20.00
2019-04-04T16:41:00.510Z,23.30
2019-04-04T16:43:29.911Z,47.27
2019-04-04T16:45:58.271Z,51.87
2019-04-04T16:48:26.666Z,48.57
2019-04-04T16:50:54.950Z,49.83
2019-04-04T16:53:24.575Z,39.30
2019-04-04T16:55:52.864Z,42.37
2019-04-04T16:58:21.524Z,42.97
2019-04-04T17:00:50.310Z,41.20
2019-04-04T17:03:19.246Z,38.27
2019-04-04T17:05:47.721Z,36.57
2019-04-04T17:08:16.023Z,36.80
2019-04-04T17:10:44.862Z,39.03
2019-04-04T17:13:14.527Z,35.97
2019-04-04T17:15:43.268Z,36.03
2019-04-04T17:18:12.340Z,37.43
2019-04-04T17:20:40.814Z,33.37
2019-04-04T17:23:09.361Z,34.87
2019-04-04T17:25:38.203Z,33.47
2019-04-04T17:28:06.877Z,31.10
2019-04-04T17:30:35.853Z,32.87
2019-04-04T17:33:06.317Z,31.23
2019-04-04T17:35:34.872Z,26.43
2019-04-04T17:38:03.869Z,50.63
2019-04-04T17:40:32.383Z,41.60
2019-04-04T17:43:01.245Z,37.90
2019-04-04T17:45:30.061Z,79.27
2019-04-04T17:47:59.132Z,87.73
2019-04-04T17:50:27.818Z,94.77
2019-04-04T17:52:56.121Z,85.57
2019-04-04T17:55:24.469Z,85.20
2019-04-04T17:57:53.159Z,82.63
2019-04-04T18:00:22.129Z,82.70
2019-04-04T18:02:50.958Z,77.70
2019-04-04T18:05:19.337Z,81.17
2019-04-04T18:07:47.711Z,78.53
2019-04-04T18:10:16.100Z,72.43
2019-04-04T18:12:44.771Z,75.40
2019-04-04T18:15:13.065Z,70.73
2019-04-04T18:17:41.375Z,74.00
2019-04-04T18:20:10.046Z,66.03
2019-04-04T18:22:39.681Z,62.10
2019-04-04T18:25:08.868Z,59.10
2019-04-04T18:27:37.171Z,56.30
2019-04-04T18:30:09.062Z,59.53
2019-04-04T18:32:40.205Z,57.00
2019-04-04T18:35:08.604Z,64.90
2019-04-04T18:37:37.126Z,57.17
2019-04-04T18:40:07.706Z,62.50
2019-04-04T18:42:37.729Z,91.03
2019-04-04T18:45:06.734Z,84.23
2019-04-04T18:47:35.294Z,82.47
2019-04-04T18:50:04.475Z,84.10
2019-04-04T18:52:32.784Z,81.43
2019-04-04T18:55:01.476Z,68.23
2019-04-04T18:57:29.876Z,67.83
2019-04-04T18:59:58.199Z,77.80
2019-04-04T19:02:26.582Z,63.33
2019-04-04T19:04:55.942Z,85.97
2019-04-04T19:07:24.522Z,100.83
2019-04-04T19:09:52.898Z,77.03
2019-04-04T19:12:24.522Z,62.43
2019-04-04T19:14:52.879Z,63.67
2019-04-04T19:17:21.581Z,65.60
2019-04-04T19:19:50.151Z,64.60
2019-04-04T19:22:20.415Z,61.47
2019-04-04T19:24:48.821Z,58.47
2019-04-04T19:27:17.218Z,57.60
2019-04-04T19:29:45.930Z,56.67
2019-04-04T19:32:14.767Z,55.60
2019-04-04T19:34:43.808Z,56.10
2019-04-04T19:37:12.696Z,51.17
2019-04-04T19:39:41.282Z,52.23
2019-04-04T19:42:09.883Z,58.13
2019-04-04T19:44:38.640Z,61.97
2019-04-04T19:47:07.448Z,62.47
2019-04-04T19:49:36.028Z,65.93
2019-04-04T19:52:04.963Z,72.43
2019-04-04T19:54:33.624Z,67.03
2019-04-04T19:57:02.248Z,64.03
2019-04-04T19:59:30.631Z,67.93
2019-04-04T20:01:59.378Z,75.50
2019-04-04T20:04:27.695Z,75.77
2019-04-04T20:06:56.326Z,75.70
2019-04-04T20:09:24.635Z,72.17
2019-04-04T20:11:52.945Z,78.47
2019-04-04T20:14:21.791Z,82.77
2019-04-04T20:16:50.460Z,78.27
2019-04-04T20:19:18.758Z,84.63
2019-04-04T20:21:47.093Z,93.67
2019-04-04T20:24:15.388Z,121.33
2019-04-04T20:26:44.089Z,119.90
2019-04-04T20:29:12.641Z,119.03
2019-04-04T20:31:41.362Z,103.83
2019-04-04T20:34:11.425Z,110.03
2019-04-04T20:36:39.775Z,112.20
2019-04-04T20:39:08.595Z,112.10
2019-04-04T20:41:38.993Z,108.80
2019-04-04T20:44:07.551Z,97.33
2019-04-04T20:46:36.261Z,99.23
2019-04-04T20:49:04.917Z,90.03
2019-04-04T20:51:33.831Z,84.50
2019-04-04T20:54:02.902Z,83.83
2019-04-04T20:56:31.778Z,80.40
2019-04-04T20:59:00.156Z,83.10
2019-04-04T21:01:31.693Z,88.77
2019-04-04T21:04:00.303Z,99.07
2019-04-04T21:06:29.280Z,136.33
2019-04-04T21:08:58.622Z,124.87
2019-04-04T21:11:27.171Z,120.87
2019-04-04T21:13:56.723Z,115.43
2019-04-04T21:16:25.251Z,114.20
2019-04-04T21:18:53.574Z,108.47
2019-04-04T21:21:22.231Z,110.10
2019-04-04T21:23:50.525Z,96.27
2019-04-04T21:26:19.175Z,100.93
2019-04-04T21:28:47.766Z,94.97
2019-04-04T21:31:16.062Z,94.27
2019-04-04T21:33:44.349Z,77.53
2019-04-04T21:36:13.006Z,81.77
2019-04-04T21:38:41.803Z,72.73
2019-04-04T21:41:10.107Z,88.10
2019-04-04T21:43:38.401Z,71.53
2019-04-04T21:46:26.390Z,83.67
2019-04-04T21:48:54.676Z,76.63
2019-04-04T21:51:23.243Z,73.90
2019-04-04T21:53:51.529Z,76.90
2019-04-04T21:56:19.823Z,75.43
2019-04-04T21:58:48.222Z,94.90
2019-04-04T22:01:16.692Z,84.37
2019-04-04T22:03:44.971Z,90.67
2019-04-04T22:06:13.621Z,81.30
2019-04-04T22:08:41.923Z,81.43
2019-04-04T22:11:10.478Z,83.33
2019-04-04T22:13:38.765Z,99.97
2019-04-04T22:16:07.081Z,106.83
2019-04-04T22:18:35.411Z,132.27
2019-04-04T22:21:04.104Z,133.73
2019-04-04T22:23:32.396Z,123.57
2019-04-04T22:26:00.974Z,129.73
2019-04-04T22:28:29.542Z,130.83
2019-04-04T22:30:58.126Z,132.43
2019-04-04T22:33:26.415Z,126.23
2019-04-04T22:35:54.797Z,125.33
2019-04-04T22:38:23.672Z,123.17
2019-04-04T22:40:51.972Z,121.63
2019-04-04T22:43:20.277Z,123.60
2019-04-04T22:45:48.593Z,122.97
2019-04-04T22:48:19.972Z,124.17
2019-04-04T22:50:48.248Z,118.00
2019-04-04T22:53:16.546Z,117.87
2019-04-04T22:55:44.841Z,116.70
2019-04-04T22:58:13.474Z,113.90
2019-04-04T23:00:41.842Z,110.83
2019-04-04T23:03:10.645Z,65.90
2019-04-04T23:05:39.430Z,57.20
2019-04-04T23:08:07.788Z,83.17
2019-04-04T23:10:36.390Z,90.77
2019-04-04T23:13:04.977Z,97.13
2019-04-04T23:15:33.379Z,88.63
2019-04-04T23:18:01.944Z,122.57
2019-04-04T23:20:30.244Z,124.90
2019-04-04T23:23:01.063Z,128.50
2019-04-04T23:25:28.818Z,129.20
2019-04-04T23:27:58.715Z,121.63
2019-04-04T23:30:27.094Z,118.80
2019-04-04T23:32:55.412Z,120.03
2019-04-04T23:35:23.972Z,126.10
2019-04-04T23:37:52.656Z,135.60
2019-04-04T23:40:21.349Z,130.43
2019-04-04T23:42:49.705Z,133.20
2019-04-04T23:45:18.003Z,132.17
2019-04-04T23:47:46.297Z,131.10
2019-04-04T23:50:14.590Z,122.00
2019-04-04T23:52:42.892Z,119.63
2019-04-04T23:55:11.507Z,113.73
2019-04-04T23:57:39.785Z,121.63
